^^
Grace C. Lehan Memorial Weather Station Historical Data
Daily Summary for September 22, 2022 Units:  English    Metric   Both
Daily Weekly Monthly Yearly
  High: Low: Average:
Temperature: 69.3 °F 57.1 °F 60.9 °F
Dew Point: 67.7 °F 50.9 °F 56.6 °F
Humidity: 96% 75.5% 86%
Wind Speed: 5.4mph 0mph 0.9mph
Wind Gust: 16mph - -
Wind- - WNW
Pressure: 29.73 in 29.49 in -
Precipitation: 0.96 in    
 
 
Tabular Data for September 22, 2022
Time Temperature Dew Point Pressure Wind Wind Speed Wind Gust Humidity Rainfall Rate (Hourly) solar
01:00 65.7 °F 63.6 °F 29.73 in Calm     93% 0.00 in 0 W/m2
03:00 66.7 °F 64.9 °F 29.67 in Calm     94% 0.00 in 0 W/m2
06:00 67.9 °F 65.2 °F 29.60 in Calm   3 mph 91% 0.00 in 0 W/m2
07:30 69.3 °F 66.6 °F 29.55 in Calm   4 mph 91% 0.00 in 0 W/m2
08:30 68.1 °F 66 °F 29.59 in Calm   12 mph 93% 0.32 in 0 W/m2
09:00 67.4 °F 65.6 °F 29.58 in Calm   6 mph 94% 0.35 in 18 W/m2
10:00 68 °F 66.5 °F 29.53 in Calm     95% 0.04 in 54 W/m2
10:30 68.5 °F 67.3 °F 29.53 in Calm     96% 0.01 in 58 W/m2
11:00 68.9 °F 67.7 °F 29.51 in Calm   2 mph 96% 0.00 in 70 W/m2
11:30 68.9 °F 67.7 °F 29.51 in Calm     96% 0.09 in 9 W/m2
12:00 68.8 °F 67.6 °F 29.50 in Calm   4 mph 96% 0.00 in 35 W/m2
12:30 64.4 °F 62.6 °F 29.52 in WNW 2 mph 16 mph 94% 0.03 in 52 W/m2
13:00 60.2 °F 57.9 °F 29.54 in NW 2 mph 13 mph 92% 0.00 in 35 W/m2
13:30 59.3 °F 57.6 °F 29.55 in Calm   4 mph 94% 0.12 in 31 W/m2
14:00 59.2 °F 57.5 °F 29.55 in Calm   2 mph 94% 0.04 in 26 W/m2
14:30 58.7 °F 57 °F 29.54 in Calm     94% 0.09 in 21 W/m2
15:00 58.7 °F 57.3 °F 29.54 in Calm     95% 0.08 in 30 W/m2
15:30 59.1 °F 57.7 °F 29.49 in Calm     95% 0.08 in 86 W/m2
16:04 60.7 °F 59.6 °F 29.50 in NNW 0.5 mph 3 mph 95.9% 0.47 in 86 W/m2
16:09 61 °F 59.9 °F 29.50 in NW 0.1 mph 3 mph 96% 0.47 in 86 W/m2
16:14 61.4 °F 60.2 °F 29.50 in Calm   3 mph 96% 0.47 in 69 W/m2
16:19 61.7 °F 60.5 °F 29.50 in Calm   3 mph 96% 0.47 in 83 W/m2
16:24 61.9 °F 60.7 °F 29.50 in NW 0.3 mph 3 mph 96% 0.47 in 109 W/m2
16:29 62 °F 60.7 °F 29.50 in NW 0.2 mph 3 mph 95.5% 0.47 in 123 W/m2
16:34 62.1 °F 60.6 °F 29.50 in Calm   3 mph 95% 0.47 in 121 W/m2
16:39 62.1 °F 60.7 °F 29.50 in Calm     95% 0.45 in 120 W/m2
16:44 62.3 °F 60.8 °F 29.50 in Calm     95% 0.45 in 120 W/m2
16:49 62.4 °F 61 °F 29.50 in Calm     95% 0.45 in 86 W/m2
16:54 62.5 °F 61 °F 29.50 in NW 0.1 mph 2 mph 95% 0.45 in 91 W/m2
16:59 62.5 °F 61.1 °F 29.50 in NW 0.2 mph 3 mph 95% 0.45 in 91 W/m2
17:04 62.7 °F 61.2 °F 29.50 in Calm   3 mph 95% 0.45 in 74 W/m2
17:09 62.8 °F 61.4 °F 29.50 in Calm     95% 0.00 in 67 W/m2
17:14 62.9 °F 61.5 °F 29.50 in Calm     95% 0.00 in 62 W/m2
17:18 63 °F 61.6 °F 29.50 in Calm     95% 0.00 in 42 W/m2
17:24 63 °F 61.5 °F 29.50 in WNW 1.6 mph 11 mph 94.7% 0.00 in 30 W/m2
17:29 62.8 °F 60.9 °F 29.50 in Calm   11 mph 93.7% 0.00 in 26 W/m2
17:34 62.9 °F 61 °F 29.50 in WNW 0.4 mph 11 mph 93.8% 0.00 in 25 W/m2
17:39 62.9 °F 60.8 °F 29.51 in NW 1.1 mph 7 mph 92.9% 0.00 in 25 W/m2
17:44 62.5 °F 59.8 °F 29.51 in WNW 2.9 mph 12 mph 90.8% 0.00 in 23 W/m2
17:49 62.2 °F 58.7 °F 29.52 in West 1.1 mph 12 mph 88.3% 0.00 in 21 W/m2
17:54 62.1 °F 58.3 °F 29.52 in WNW 0.8 mph 12 mph 87.3% 0.00 in 21 W/m2
17:59 62 °F 58 °F 29.52 in WNW 0.4 mph 12 mph 86.7% 0.00 in 18 W/m2
18:04 61.8 °F 57.6 °F 29.52 in WNW 0.2 mph 12 mph 86% 0.00 in 18 W/m2
18:09 61.7 °F 57.5 °F 29.52 in WNW 0.1 mph 3 mph 86% 0.00 in 16 W/m2
18:30 61 °F 56.5 °F 29.54 in Calm   4 mph 85% 0.00 in 12 W/m2
19:00 60 °F 54.8 °F 29.55 in WNW 1 mph 11 mph 83% 0.00 in 1 W/m2
19:30 59.5 °F 53.7 °F 29.56 in Calm   11 mph 81% 0.00 in 0 W/m2
20:04 60 °F 52.5 °F 29.58 in WNW 4.5 mph 11 mph 76.3% 0.96 in 0 W/m2
20:09 60 °F 52.4 °F 29.59 in WNW 4.9 mph 13 mph 76% 0.96 in 0 W/m2
20:14 60 °F 52.3 °F 29.59 in WNW 5.4 mph 16 mph 75.5% 0.96 in 0 W/m2
20:19 60.2 °F 52.4 °F 29.60 in WNW 4.1 mph 16 mph 75.5% 0.96 in 0 W/m2
20:24 60.1 °F 52.5 °F 29.60 in WNW 3.4 mph 16 mph 76% 0.96 in 0 W/m2
20:29 60 °F 52.4 °F 29.61 in WNW 4.3 mph 16 mph 76% 0.96 in 0 W/m2
20:34 60 °F 52.4 °F 29.61 in WNW 3.5 mph 16 mph 76.1% 0.96 in 0 W/m2
20:39 59.9 °F 52.5 °F 29.61 in WNW 3.7 mph 14 mph 76.5% 0.96 in 0 W/m2
20:44 59.8 °F 52.5 °F 29.61 in WNW 3 mph 14 mph 76.8% 0.96 in 0 W/m2
20:49 59.7 °F 52.5 °F 29.61 in WNW 1.8 mph 14 mph 77% 0.96 in 0 W/m2
20:54 59.6 °F 52.4 °F 29.61 in WNW 4.6 mph 14 mph 77% 0.96 in 0 W/m2
20:59 59.5 °F 52.4 °F 29.61 in WNW 0.7 mph 14 mph 77.4% 0.96 in 0 W/m2
21:04 59.4 °F 52.6 °F 29.62 in WNW 1.2 mph 14 mph 78% 0.96 in 0 W/m2
21:09 59.4 °F 52.8 °F 29.62 in NW 0.6 mph 10 mph 78.7% 0.00 in 0 W/m2
21:14 59.3 °F 52.8 °F 29.62 in NW 0.4 mph 10 mph 79% 0.00 in 0 W/m2
21:19 59.3 °F 52.8 °F 29.62 in WNW 1.6 mph 11 mph 79% 0.00 in 0 W/m2
21:24 59.2 °F 52.8 °F 29.62 in West 1 mph 11 mph 79.3% 0.00 in 0 W/m2
21:29 59.2 °F 53 °F 29.62 in WNW 1 mph 11 mph 80% 0.00 in 0 W/m2
21:34 59.2 °F 53 °F 29.63 in WNW 1.5 mph 11 mph 80% 0.00 in 0 W/m2
21:39 59.1 °F 53 °F 29.63 in West 2.8 mph 12 mph 80% 0.00 in 0 W/m2
21:44 59.1 °F 52.9 °F 29.63 in WNW 1.1 mph 12 mph 80% 0.00 in 0 W/m2
21:49 59 °F 52.8 °F 29.63 in West 1.3 mph 12 mph 80% 0.00 in 0 W/m2
21:54 58.9 °F 52.8 °F 29.63 in WNW 1.5 mph 12 mph 80.2% 0.00 in 0 W/m2
21:59 58.8 °F 53 °F 29.63 in WNW 1 mph 12 mph 81% 0.00 in 0 W/m2
22:04 58.7 °F 52.9 °F 29.63 in WNW 2.4 mph 12 mph 81% 0.00 in 0 W/m2
22:09 58.6 °F 52.8 °F 29.64 in West 0.1 mph 10 mph 81% 0.00 in 0 W/m2
22:14 58.5 °F 52.7 °F 29.64 in WNW 0.7 mph 10 mph 81% 0.00 in 0 W/m2
22:19 58.4 °F 52.6 °F 29.64 in WNW 0.5 mph 10 mph 81% 0.00 in 0 W/m2
22:24 58.2 °F 52.4 °F 29.64 in WNW 0.2 mph 10 mph 81% 0.00 in 0 W/m2
22:29 58.1 °F 52.3 °F 29.65 in WNW 0.3 mph 10 mph 81% 0.00 in 0 W/m2
22:34 58 °F 52.2 °F 29.66 in WNW 0.1 mph 10 mph 81% 0.00 in 0 W/m2
22:39 57.9 °F 52.3 °F 29.66 in Calm   2 mph 81.6% 0.00 in 0 W/m2
22:44 57.8 °F 52.3 °F 29.66 in Calm   2 mph 82% 0.00 in 0 W/m2
22:49 57.7 °F 52.3 °F 29.67 in Calm   2 mph 82% 0.00 in 0 W/m2
22:54 57.7 °F 52.4 °F 29.67 in Calm   2 mph 82.5% 0.00 in 0 W/m2
22:59 57.7 °F 52.5 °F 29.67 in Calm   2 mph 83% 0.00 in 0 W/m2
23:04 57.6 °F 52.5 °F 29.68 in NW 0.5 mph 5 mph 83% 0.00 in 0 W/m2
23:09 57.5 °F 52 °F 29.68 in WNW 2.9 mph 12 mph 81.7% 0.00 in 0 W/m2
23:14 57.5 °F 51.5 °F 29.68 in NW 1.6 mph 12 mph 80.2% 0.00 in 0 W/m2
23:19 57.6 °F 51.1 °F 29.68 in NW 1.1 mph 12 mph 78.9% 0.00 in 0 W/m2
23:24 57.7 °F 50.9 °F 29.68 in NNW 0.1 mph 12 mph 78.2% 0.00 in 0 W/m2
23:29 57.7 °F 51.2 °F 29.68 in NW 0.2 mph 12 mph 79% 0.00 in 0 W/m2
23:34 57.6 °F 51.2 °F 29.68 in NW 0.1 mph 12 mph 79% 0.00 in 0 W/m2
23:39 57.5 °F 51.4 °F 29.68 in WNW 0.8 mph 7 mph 80% 0.00 in 0 W/m2
23:44 57.3 °F 51.2 °F 29.68 in Calm   7 mph 80% 0.00 in 0 W/m2
23:49 57.2 °F 51.2 °F 29.69 in WNW 0.3 mph 7 mph 80.2% 0.00 in 0 W/m2
23:54 57.1 °F 51.3 °F 29.69 in Calm   7 mph 81% 0.00 in 0 W/m2
23:59 57.1 °F 51.3 °F 29.69 in WNW 0.3 mph 7 mph 81% 0.00 in 0 W/m2
Hartford County Weather
Compliments of Weather Underground - 2 mb